Namao — CZ9742 — position and weather

sailwx.info

Track history (hours):
 
Tides and Currents Weather Stations Pressure Air Temp Water Temp Dewpoint Dewpoint Depression Visibility Wind Speed Wind Dir Waves Ship Positions

Oceanographic research ship Namao (Canada)

Last reported at 2017-Mar-26 01:00 UTC. Time now 2017-Mar-26 01:44 UTC.
Position N 50°36' W 096°54'.

Wind from 180 at 13 knots

Barometer 1014.7 mb
Air temperature 2.3 ° C
Dewpoint 2.2 ° C

Date/timePositionNaut miles runAvg speedWind from/ knotsBaromVisibWave heightAir tempDewpointWater temp
2017-Mar-26 01:00N 50°36' W 096°54'0 0.0 180 / 131014.7 2.3 2.2
2017-Mar-26 00:00N 50°36' W 096°54'0 0.0 180 / 171014.6 3.0 1.2
2017-Mar-25 23:00N 50°36' W 096°54'0 0.0 170 / 191014.9 2.4 1.3
2017-Mar-25 22:00N 50°36' W 096°54'0 0.0 170 / 221015.2 2.3 1.0
2017-Mar-25 21:00N 50°36' W 096°54'0 0.0 170 / 251015.6 2.2 1.0
2017-Mar-25 20:00N 50°36' W 096°54'0 0.0 160 / 221017.1 2.1 1.5
2017-Mar-25 19:00N 50°36' W 096°54'0 0.0 160 / 191018.5 2.5 1.5
2017-Mar-25 18:00N 50°36' W 096°54'0 0.0 160 / 181019.0 1.8 1.7
2017-Mar-25 17:00N 50°36' W 096°54'0 0.0 160 / 181019.6 1.6 1.5
2017-Mar-25 16:00N 50°36' W 096°54'0 0.0 160 / 131020.5 0.1 0.1
2017-Mar-25 15:00N 50°36' W 096°54'0 0.0 160 / 111021.0 -1.3-1.3
2017-Mar-25 14:00N 50°36' W 096°54'0 0.0 140 / 111021.2 -1.9-1.9
2017-Mar-25 13:00N 50°36' W 096°54'0 0.0 140 / 111021.9 -2.3-2.3
2017-Mar-25 12:00N 50°36' W 096°54'0 0.0 130 / 81022.4 -2.2-2.2
2017-Mar-25 11:00N 50°36' W 096°54'0 0.0 150 / 41023.5 -3.4-3.4
2017-Mar-25 10:00N 50°36' W 096°54'0 0.0 120 / 61023.9 -3.1-3.1
2017-Mar-25 09:00N 50°36' W 096°54'0 0.0 150 / 41024.4 -4.1-4.1
2017-Mar-25 08:00N 50°36' W 096°54'0 0.0 160 / 31025.2 -3.6-3.7
2017-Mar-25 07:00N 50°36' W 096°54'0 0.0 150 / 31025.3 -3.4-3.5
2017-Mar-25 06:00N 50°36' W 096°54'0 0.0 150 / 31025.7 -3.1-3.1
2017-Mar-25 05:00N 50°36' W 096°54'0 0.0 140 / 21025.8 -2.5-2.5
2017-Mar-25 04:00N 50°36' W 096°54'0 0.0 180 / 41026.1 -2.7-2.8
2017-Mar-25 03:00N 50°36' W 096°54'0 0.0 190 / 31025.9 -1.7-4.3
2017-Mar-25 02:00N 50°36' W 096°54'0 0.0 210 / 41025.5 -1.1-4.8
2017-Mar-25 01:00N 50°36' W 096°54'0 0.0 160 / 31025.2 -1.1-3.8
2017-Mar-24 23:00N 50°36' W 096°54'0 0.0 060 / 31024.9 1.2-4.3
2017-Mar-24 22:00N 50°36' W 096°54'0 0.0 030 / 51025.4 0.2-5.2
2017-Mar-24 21:00N 50°36' W 096°54'0 0.0 060 / 61026.1 -0.1-5.5
2017-Mar-24 20:00N 50°36' W 096°54'0 0.0 050 / 71026.3 -0.4-5.2
2017-Mar-24 19:00N 50°36' W 096°54'0 0.0 040 / 91025.8 -0.8-4.8
2017-Mar-24 18:00N 50°36' W 096°54'0 0.0 040 / 131025.6 -1.1-3.3
2017-Mar-24 17:00N 50°36' W 096°54'0 0.0 030 / 151025.0 -1.3-2.9
2017-Mar-24 16:00N 50°36' W 096°54'0 0.0 010 / 131024.4 -1.2-1.6
2017-Mar-24 15:00N 50°36' W 096°54'0 0.0 350 / 91024.2 -0.8-1.6
2017-Mar-24 14:00N 50°36' W 096°54'0 0.0 350 / 91023.0 -0.9-1.4
2017-Mar-24 13:00N 50°36' W 096°54'0 0.0 330 / 71022.2 -1.1-1.3
2017-Mar-24 12:00N 50°36' W 096°54'0 0.0 330 / 61021.2 -1.2-1.4
2017-Mar-24 11:00N 50°36' W 096°54'0 0.0 320 / 61020.3 -1.2-1.7
2017-Mar-24 10:00N 50°36' W 096°54'0 0.0 330 / 71019.1 -1.3-2.3
2017-Mar-24 09:00N 50°36' W 096°54'0 0.0 340 / 91017.4 -1.4-2.6
2017-Mar-24 08:00N 50°36' W 096°54'0 0.0 330 / 91017.0 -1.8-3.1
2017-Mar-24 07:00N 50°36' W 096°54'0 0.0 320 / 81017.4 -2.2-3.4
2017-Mar-24 06:00N 50°36' W 096°54'0 0.0 330 / 61017.0 -1.8-3.1
2017-Mar-24 05:00N 50°36' W 096°54'0 0.0 340 / 91016.2 -1.4-3.3
2017-Mar-24 04:00N 50°36' W 096°54'0 0.0 360 / 141015.0 -1.0-3.2
2017-Mar-24 03:00N 50°36' W 096°54'0 0.0 360 / 161013.5 -0.6-2.1
2017-Mar-24 02:00N 50°36' W 096°54'0 0.0 360 / 181012.0 0.5-1.3
2017-Mar-24 01:00N 50°36' W 096°54'0 0.0 240 / 51010.4 1.6 1.4
2017-Mar-24 00:00N 50°36' W 096°54'0 0.0 220 / 51009.5 2.8 1.2
2017-Mar-23 23:00N 50°36' W 096°54'0 0.0 210 / 61008.9 3.2 1.1
2017-Mar-23 22:00N 50°36' W 096°54'0 0.0 190 / 81008.4 3.4 0.8
2017-Mar-23 21:00N 50°36' W 096°54'0 0.0 180 / 91008.1 3.2 0.7
2017-Mar-23 20:00N 50°36' W 096°54'0 0.0 180 / 111008.2 3.1 0.3
2017-Mar-23 19:00N 50°36' W 096°54'0 0.0 190 / 121008.5 2.9 0.1
2017-Mar-23 18:00N 50°36' W 096°54'0 0.0 190 / 121008.5 2.6-0.4
2017-Mar-23 17:00N 50°36' W 096°54'0 0.0 200 / 151008.3 1.8-1.0
2017-Mar-23 16:00N 50°36' W 096°54'0 0.0 200 / 181008.5 1.0-1.5
2017-Mar-23 15:00N 50°36' W 096°54'0 0.0 190 / 211007.8 0.4-2.2
2017-Mar-23 14:00N 50°36' W 096°54'0 0.0 190 / 201008.7 -0.0-2.7
2017-Mar-23 13:00N 50°36' W 096°54'0 0.0 180 / 171009.1 -0.3-3.0
2017-Mar-23 12:00N 50°36' W 096°54'0 0.0 180 / 191009.3 -0.2-3.0
2017-Mar-23 11:00N 50°36' W 096°54'0 0.0 180 / 201010.5 0.1-3.0
2017-Mar-23 10:00N 50°36' W 096°54'0 0.0 180 / 181011.7 0.1-3.2
2017-Mar-23 09:00N 50°36' W 096°54'0 0.0 170 / 141013.2 -1.1-3.6
2017-Mar-23 08:00N 50°36' W 096°54'0 0.0 160 / 141013.8 -1.9-3.5
2017-Mar-23 07:00N 50°36' W 096°54'0 0.0 160 / 141015.6 -2.1-3.8
2017-Mar-23 06:00N 50°36' W 096°54'0 0.0 160 / 141016.3 -2.6-4.9
2017-Mar-23 05:00N 50°36' W 096°54'0 0.0 160 / 141017.4 -2.7-4.9
2017-Mar-23 04:00N 50°36' W 096°54'0 0.0 150 / 161018.6 -2.8-5.2
2017-Mar-23 03:00N 50°36' W 096°54'0 0.0 150 / 141019.7 -3.1-5.1
2017-Mar-23 02:00N 50°36' W 096°54'0 0.0 150 / 171020.9 -3.1-6.0
2017-Mar-23 01:00N 50°36' W 096°54'0 0.0 140 / 151021.2 -3.4-5.0
2017-Mar-23 00:00N 50°36' W 096°54'0 0.0 170 / 191021.6 -2.7-7.7
2017-Mar-22 23:00N 50°36' W 096°54'0 0.0 160 / 161022.6 -2.3-8.4
2017-Mar-22 22:00N 50°36' W 096°54'0 0.0 160 / 121023.2 -2.5-8.4
2017-Mar-22 21:00N 50°36' W 096°54'0 0.0 170 / 171024.3 -2.5-10.0
2017-Mar-22 20:00N 50°36' W 096°54'0 0.0 160 / 171025.9 -2.8-9.8
2017-Mar-22 19:00N 50°36' W 096°54'0 0.0 160 / 181027.4 -3.7-11.2
2017-Mar-22 18:00N 50°36' W 096°54'0 0.0 160 / 141028.5 -4.7-11.4
2017-Mar-22 17:00N 50°36' W 096°54'0 0.0 150 / 131029.8 -5.9-12.8
2017-Mar-22 16:00N 50°36' W 096°54'0 0.0 140 / 131031.3 -7.2-13.0
2017-Mar-22 15:00N 50°36' W 096°54'0 0.0 150 / 131031.3 -8.5-13.5
2017-Mar-22 14:00N 50°36' W 096°54'0 0.0 140 / 101031.9 -10.2-13.9
2017-Mar-22 13:00N 50°36' W 096°54'0 0.0 150 / 91033.2 -11.0-14.6
2017-Mar-22 12:00N 50°36' W 096°54'0 0.0 150 / 71034.0 -11.5-15.3
2017-Mar-22 11:00N 50°36' W 096°54'0 0.0 140 / 91034.4 -11.6-15.0
2017-Mar-22 10:00N 50°36' W 096°54'0 0.0 130 / 61035.3 -11.8-13.9
2017-Mar-22 09:00N 50°36' W 096°54'0 0.0 150 / 71036.6 -12.2-15.5
2017-Mar-22 08:00N 50°36' W 096°54'0 0.0 160 / 41037.0 -12.4-14.9
2017-Mar-22 07:00N 50°36' W 096°54'0 0.0 180 / 51037.3 -12.6-15.4
2017-Mar-22 06:00N 50°36' W 096°54'0 0.0 180 / 31037.7 -12.2-15.8
2017-Mar-22 05:00N 50°36' W 096°54'0 0.0 190 / 51038.2 -11.9-16.1
2017-Mar-22 04:00N 50°36' W 096°54'0 0.0 180 / 41038.4 -11.7-15.3
2017-Mar-22 03:00N 50°36' W 096°54'0 0.0 170 / 51038.6 -11.2-16.3
2017-Mar-22 02:00N 50°36' W 096°54'0 0.0 170 / 41038.8 -10.9-16.5
2017-Mar-22 01:00N 50°36' W 096°54'0 0.0 080 / 31038.9 -9.4-16.8
2017-Mar-22 00:00N 50°36' W 096°54'0 0.0 050 / 61039.0 -8.6-17.5
2017-Mar-21 23:00N 50°36' W 096°54'0 0.0 050 / 61039.6 -8.0-17.5
2017-Mar-21 22:00N 50°36' W 096°54'0 0.0 050 / 61039.6 -8.6-17.6
2017-Mar-21 21:00N 50°36' W 096°54'0 0.0 040 / 61040.0 -8.9-18.1
2017-Mar-21 20:00N 50°36' W 096°54'0 0.0 030 / 71040.3 -9.9-18.7
2017-Mar-21 19:00N 50°36' W 096°54'0 0.0 040 / 81040.6 -10.6-18.6
2017-Mar-21 18:00N 50°36' W 096°54'0 0.0 020 / 101040.8 -11.6-19.5
2017-Mar-21 17:00N 50°36' W 096°54'0 0.0 020 / 121040.8 -12.0-20.1
2017-Mar-21 16:00N 50°36' W 096°54'0 0.0 010 / 131040.8 -12.4-21.2
2017-Mar-21 15:00N 50°36' W 096°54'0 0.0 010 / 101040.5 -13.1-20.1
2017-Mar-21 14:00N 50°36' W 096°54'0 0.0 330 / 81039.8 -13.8-19.6
2017-Mar-21 13:00N 50°36' W 096°54'0 0.0 310 / 81038.8 -14.3-19.5
2017-Mar-21 12:00N 50°36' W 096°54'0 0.0 330 / 81037.8 -13.9-19.2
2017-Mar-21 11:00N 50°36' W 096°54'0 0.0 330 / 101037.0 -13.4-19.1
2017-Mar-21 10:00N 50°36' W 096°54'0 0.0 320 / 91036.0 -12.7-18.9
2017-Mar-21 09:00N 50°36' W 096°54'0 0.0 330 / 111035.2 -12.2-18.8
2017-Mar-21 08:00N 50°36' W 096°54'0 0.0 320 / 101034.8 -11.6-17.6
2017-Mar-21 07:00N 50°36' W 096°54'0 0.0 330 / 141033.7 -11.0-17.4
2017-Mar-21 06:00N 50°36' W 096°54'0 0.0 320 / 111033.0 -10.3-17.1
2017-Mar-21 05:00N 50°36' W 096°54'0 0.0 320 / 131031.8 -9.3-17.0
2017-Mar-21 04:00N 50°36' W 096°54'0 0.0 330 / 111031.0 -8.7-15.5
2017-Mar-21 03:00N 50°36' W 096°54'0 0.0 330 / 101030.1 -8.4-15.0
2017-Mar-21 02:00N 50°36' W 096°54'0 0.0 330 / 131028.7 -8.2-15.1
2017-Mar-21 01:00N 50°36' W 096°54'0 0.0 320 / 161026.9 -7.7-14.0
2017-Mar-21 00:00N 50°36' W 096°54'0 0.0 330 / 231024.4 -6.3-11.8
2017-Mar-20 23:00N 50°36' W 096°54'0 0.0 330 / 191021.6 -5.4-8.8
2017-Mar-20 22:00N 50°36' W 096°54'0 0.0 330 / 231017.8 -3.2-5.9
2017-Mar-20 21:00N 50°36' W 096°54'0 0.0 230 / 161017.2 1.4-2.3
2017-Mar-20 20:00N 50°36' W 096°54'0 0.0 260 / 141017.1 5.8-6.1
2017-Mar-20 19:00N 50°36' W 096°54'0 0.0 240 / 101017.4 5.0-5.1
2017-Mar-20 18:00N 50°36' W 096°54'0 0.0 240 / 101018.0 4.8-5.2
2017-Mar-20 17:00N 50°36' W 096°54'0 0.0 240 / 101018.3 4.3-5.5
2017-Mar-20 16:00N 50°36' W 096°54'0 0.0 240 / 81018.7 3.3-5.4
2017-Mar-20 15:00N 50°36' W 096°54'0 0.0 240 / 101018.9 2.1-5.5
2017-Mar-20 14:00N 50°36' W 096°54'0 0.0 240 / 101018.9 0.5-5.6
2017-Mar-20 13:00N 50°36' W 096°54'0 0.0 240 / 81018.7 -0.7-5.8
2017-Mar-20 12:00N 50°36' W 096°54'0 0.0 230 / 81018.4 -0.5-5.8
2017-Mar-20 11:00N 50°36' W 096°54'0 0.0 240 / 71018.0 -0.1-5.5
2017-Mar-20 10:00N 50°36' W 096°54'0 0.0 250 / 71017.7 -0.0-5.1
2017-Mar-20 09:00N 50°36' W 096°54'0 0.0 250 / 61017.6 0.3-4.9
2017-Mar-20 08:00N 50°36' W 096°54'0 0.0 250 / 61017.3 0.7-5.4
2017-Mar-20 07:00N 50°36' W 096°54'0 0.0 250 / 71016.8 1.2-5.2
2017-Mar-20 06:00N 50°36' W 096°54'0 0.0 260 / 81016.1 2.3-4.8
2017-Mar-20 05:00N 50°36' W 096°54'0 0.0 260 / 81015.5 2.8-3.6
2017-Mar-20 04:00N 50°36' W 096°54'0 0.0 270 / 81014.6 3.6-2.5
2017-Mar-20 03:00N 50°36' W 096°54'0 0.0 270 / 61013.6 4.1-1.6
2017-Mar-20 02:00N 50°36' W 096°54'0 0.0 260 / 71012.3 5.4-1.0
2017-Mar-20 01:00N 50°36' W 096°54'0 0.0 260 / 71011.0 6.4-0.4
2017-Mar-20 00:00N 50°36' W 096°54'0 0.0 270 / 91009.5 8.1 0.4
2017-Mar-19 23:00N 50°36' W 096°54'0 0.0 260 / 91008.7 9.0 0.9
2017-Mar-19 22:00N 50°36' W 096°54'0 0.0 260 / 91007.1 10.0 1.6
2017-Mar-19 21:00N 50°36' W 096°54'0 0.0 190 / 81006.2 4.8 2.4
2017-Mar-19 20:00N 50°36' W 096°54'0 0.0 190 / 121005.6 4.6 2.1
2017-Mar-19 19:00N 50°36' W 096°54'0 0.0 190 / 111005.4 3.9 1.9
2017-Mar-19 18:00N 50°36' W 096°54'0 0.0 200 / 151005.5 3.4 1.6
2017-Mar-19 17:00N 50°36' W 096°54'0 0.0 190 / 201004.8 3.2 1.4
2017-Mar-19 16:00N 50°36' W 096°54'0 0.0 180 / 181004.8 2.6 0.8
2017-Mar-19 15:00N 50°36' W 096°54'0 0.0 180 / 211004.8 2.9 0.2
2017-Mar-19 14:00N 50°36' W 096°54'0 0.0 180 / 221005.1 2.6-0.1
2017-Mar-19 13:00N 50°36' W 096°54'0 0.0 170 / 181006.3 2.1-1.0
2017-Mar-19 12:00N 50°36' W 096°54'0 0.0 160 / 191007.6 0.8-1.0
2017-Mar-19 11:00N 50°36' W 096°54'0 0.0 150 / 221006.9 0.4-0.9
2017-Mar-19 10:00N 50°36' W 096°54'0 0.0 150 / 191009.6 0.3-0.0
2017-Mar-19 09:00N 50°36' W 096°54'0 0.0 160 / 201011.7 0.5 0.1
2017-Mar-19 08:00N 50°36' W 096°54'0 0.0 160 / 191012.9 -0.2-0.3
2017-Mar-19 07:00N 50°36' W 096°54'0 0.0 160 / 131014.7 -0.7-0.8
2017-Mar-19 06:00N 50°36' W 096°54'0 0.0 160 / 191015.8 -1.5-1.5
2017-Mar-19 05:00N 50°36' W 096°54'0 0.0 150 / 151018.0 -1.9-2.0
2017-Mar-19 04:00N 50°36' W 096°54'0 0.0 160 / 131018.6 -2.7-2.7
2017-Mar-19 03:00N 50°36' W 096°54'0 0.0 150 / 101019.5 -3.1-3.1
2017-Mar-19 02:00N 50°36' W 096°54'0 0.0 150 / 101020.5 -2.6-2.7
2017-Mar-19 01:00N 50°36' W 096°54'0 0.0 140 / 121021.6 -2.6-2.8
2017-Mar-19 00:00N 50°36' W 096°54'0 0.0 140 / 81022.9 -3.2-3.8
2017-Mar-18 23:00N 50°36' W 096°54'0 0.0 150 / 101024.2 -3.5-6.3
2017-Mar-18 22:00N 50°36' W 096°54'0 0.0 160 / 91025.5 -3.7-6.3
2017-Mar-18 21:00N 50°36' W 096°54'0 0.0 150 / 101026.6 -4.7-8.7
2017-Mar-18 20:00N 50°36' W 096°54'0 0.0 170 / 81027.3 -6.0-9.2
2017-Mar-18 19:00N 50°36' W 096°54'0 0.0 140 / 81028.4 -6.8-10.2
2017-Mar-18 18:00N 50°36' W 096°54'0 0.0 130 / 71029.6 -7.7-11.0
2017-Mar-18 17:00N 50°36' W 096°54'0 0.0 150 / 61030.3 -9.0-11.9
2017-Mar-18 16:00N 50°36' W 096°54'0 0.0 130 / 61030.8 -8.6-11.3
2017-Mar-18 15:00N 50°36' W 096°54'0 0.0 090 / 71030.8 -8.7-9.8
2017-Mar-18 14:00N 50°36' W 096°54'0 0.0 010 / 41031.5 -11.7-11.8
2017-Mar-18 13:00N 50°36' W 096°54'0 0.0 330 / 41031.9 -13.0-13.2
2017-Mar-18 12:00N 50°36' W 096°54'0 0.0 300 / 41031.4 -13.3-13.4
2017-Mar-18 11:00N 50°36' W 096°54'0 0.0 320 / 41030.6 -12.9-13.0
2017-Mar-18 10:00N 50°36' W 096°54'0 0.0 300 / 41030.5 -12.5-12.7
2017-Mar-18 09:00N 50°36' W 096°54'0 0.0 320 / 51030.1 -11.8-12.0
2017-Mar-18 08:00N 50°36' W 096°54'0 0.0 330 / 71029.9 -11.2-11.3
2017-Mar-18 07:00N 50°36' W 096°54'0 0.0 340 / 91029.5 -10.7-10.8
2017-Mar-18 06:00N 50°36' W 096°54'0 0.0 320 / 111028.9 -10.4-10.6
2017-Mar-18 05:00N 50°36' W 096°54'0 0.0 310 / 91027.8 -9.9-10.1
2017-Mar-18 04:00N 50°36' W 096°54'0 0.0 320 / 111027.3 -9.6-9.7
2017-Mar-18 03:00N 50°36' W 096°54'0 0.0 340 / 141026.4 -8.1-8.3
2017-Mar-18 02:00N 50°36' W 096°54'0 0.0 320 / 141026.0 -8.4-8.5
2017-Mar-18 01:00N 50°36' W 096°54'0 0.0 320 / 151024.9 -8.6-8.7
2017-Mar-18 00:00N 50°36' W 096°54'0 0.0 320 / 161023.5 -8.3-8.6
2017-Mar-17 23:00N 50°36' W 096°54'0 0.0 320 / 171022.0 -7.9-8.4
2017-Mar-17 22:00N 50°36' W 096°54'0 0.0 320 / 181020.2 -7.1-7.2
2017-Mar-17 21:00N 50°36' W 096°54'0 0.0 320 / 181018.2 -6.2-6.3
2017-Mar-17 20:00N 50°36' W 096°54'0 0.0 320 / 181017.0 -6.2-6.3
2017-Mar-17 19:00N 50°36' W 096°54'0 0.0 310 / 171015.8 -5.8-5.9
2017-Mar-17 18:00N 50°36' W 096°54'0 0.0 320 / 171014.1 -4.3-4.4
2017-Mar-17 17:00N 50°36' W 096°54'0 0.0 310 / 191012.3 -3.7-3.8
2017-Mar-17 16:00N 50°36' W 096°54'0 0.0 310 / 201011.0 -2.1-2.1
2017-Mar-17 15:00N 50°36' W 096°54'0 0.0 310 / 151009.9 -0.3-0.0
2017-Mar-17 14:00N 50°36' W 096°54'0 0.0 300 / 131009.0 -0.1 0.2
2017-Mar-17 13:00N 50°36' W 096°54'0 0.0 310 / 101008.3 0.1 0.4
2017-Mar-17 12:00N 50°36' W 096°54'0 0.0 310 / 111007.2 0.3 0.6
2017-Mar-17 11:00N 50°36' W 096°54'0 0.0 320 / 101006.4 0.5 0.9
2017-Mar-17 10:00N 50°36' W 096°54'0 0.0 290 / 61006.0 0.7 1.2
2017-Mar-17 09:00N 50°36' W 096°54'0 0.0 270 / 11005.9 0.4 0.9
2017-Mar-17 08:00N 50°36' W 096°54'0 0.0 210 / 31005.7 0.4 0.8
2017-Mar-17 07:00N 50°36' W 096°54'0 0.0 190 / 81005.8 0.6 1.0
2017-Mar-17 06:00N 50°36' W 096°54'0 0.0 180 / 101005.8 0.9 1.2
2017-Mar-17 05:00N 50°36' W 096°54'0 0.0 180 / 121006.1 1.0 1.3
2017-Mar-17 04:00N 50°36' W 096°54'0 0.0 170 / 151006.6 0.8 1.2
2017-Mar-17 03:00N 50°36' W 096°54'0 0.0 170 / 141007.4 0.8 1.2
2017-Mar-17 02:00N 50°36' W 096°54'0 0.0 160 / 121008.2 0.3 0.8
2017-Mar-17 01:00N 50°36' W 096°54'0 0.0 150 / 111008.7 -0.0 0.4
2017-Mar-17 00:00N 50°36' W 096°54'0 0.0 150 / 131009.0 0.1 0.4
2017-Mar-16 23:00N 50°36' W 096°54'0 0.0 160 / 121009.2 0.1 0.4
2017-Mar-16 22:00N 50°36' W 096°54'0 0.0 160 / 141009.3 0.2 0.4
2017-Mar-16 21:00N 50°36' W 096°54'0 0.0 160 / 111010.0 0.8 0.8
2017-Mar-16 20:00N 50°36' W 096°54'0 0.0 140 / 111010.6 0.7 0.1
2017-Mar-16 19:00N 50°36' W 096°54'0 0.0 140 / 101011.6 0.4-0.0
2017-Mar-16 18:00N 50°36' W 096°54'0 0.0 140 / 151012.3 -0.4-0.7
2017-Mar-16 17:00N 50°36' W 096°54'0 0.0 150 / 131013.0 -1.4-1.6
2017-Mar-16 16:00N 50°36' W 096°54'0 0.0 140 / 151013.7 -2.6-2.8
2017-Mar-16 15:00N 50°36' W 096°54'0 0.0 130 / 141014.1 -3.6-3.7
2017-Mar-16 14:00N 50°36' W 096°54'0 0.0 130 / 141014.2 -4.4-4.5
2017-Mar-16 13:00N 50°36' W 096°54'0 0.0 140 / 121015.0 -5.3-5.4
2017-Mar-16 12:00N 50°36' W 096°54'0 0.0 150 / 111014.9 -5.1-5.1
2017-Mar-16 11:00N 50°36' W 096°54'0 0.0 160 / 91015.5 -5.3-5.2
2017-Mar-16 10:00N 50°36' W 096°54'0 0.0 160 / 101016.0 -4.7-4.7
2017-Mar-16 09:00N 50°36' W 096°54'0 0.0 160 / 111016.9 -4.0-4.1
2017-Mar-16 08:00N 50°36' W 096°54'0 0.0 170 / 111017.4 -2.9-3.0
2017-Mar-16 07:00N 50°36' W 096°54'0 0.0 160 / 91018.1 -4.5-4.6
2017-Mar-16 06:00N 50°36' W 096°54'0 0.0 170 / 91018.4 -4.8-4.9
2017-Mar-16 05:00N 50°36' W 096°54'0 0.0 150 / 91019.0 -4.4-4.5
2017-Mar-16 04:00N 50°36' W 096°54'0 0.0 150 / 91019.5 -4.3-4.4
2017-Mar-16 03:00N 50°36' W 096°54'0 0.0 160 / 91020.0 -3.7-3.9
2017-Mar-16 02:00N 50°36' W 096°54'0 0.0 180 / 71020.4 -3.0-4.0
2017-Mar-16 01:00N 50°36' W 096°54'   170 / 91020.4 -1.9-5.0
Track history (hours):
 
Tides and Currents Weather Stations Pressure Air Temp Water Temp Dewpoint Dewpoint Depression Visibility Wind Speed Wind Dir Waves Ship Positions

Oceanographic research ship Namao (Canada)

Last reported at 2017-Mar-26 01:00 UTC. Time now 2017-Mar-26 01:44 UTC.
Position N 50°36' W 096°54'.

Wind from 180 at 13 knots

Barometer 1014.7 mb
Air temperature 2.3 ° C
Dewpoint 2.2 ° C

Date/timePositionNaut miles runAvg speedWind from/ knotsBaromVisibWave heightAir tempDewpointWater temp
2017-Mar-26 01:00N 50°36' W 096°54'0 0.0 180 / 131014.7 2.3 2.2
2017-Mar-26 00:00N 50°36' W 096°54'0 0.0 180 / 171014.6 3.0 1.2
2017-Mar-25 23:00N 50°36' W 096°54'0 0.0 170 / 191014.9 2.4 1.3
2017-Mar-25 22:00N 50°36' W 096°54'0 0.0 170 / 221015.2 2.3 1.0
2017-Mar-25 21:00N 50°36' W 096°54'0 0.0 170 / 251015.6 2.2 1.0
2017-Mar-25 20:00N 50°36' W 096°54'0 0.0 160 / 221017.1 2.1 1.5
2017-Mar-25 19:00N 50°36' W 096°54'0 0.0 160 / 191018.5 2.5 1.5
2017-Mar-25 18:00N 50°36' W 096°54'0 0.0 160 / 181019.0 1.8 1.7
2017-Mar-25 17:00N 50°36' W 096°54'0 0.0 160 / 181019.6 1.6 1.5
2017-Mar-25 16:00N 50°36' W 096°54'0 0.0 160 / 131020.5 0.1 0.1
2017-Mar-25 15:00N 50°36' W 096°54'0 0.0 160 / 111021.0 -1.3-1.3
2017-Mar-25 14:00N 50°36' W 096°54'0 0.0 140 / 111021.2 -1.9-1.9
2017-Mar-25 13:00N 50°36' W 096°54'0 0.0 140 / 111021.9 -2.3-2.3
2017-Mar-25 12:00N 50°36' W 096°54'0 0.0 130 / 81022.4 -2.2-2.2
2017-Mar-25 11:00N 50°36' W 096°54'0 0.0 150 / 41023.5 -3.4-3.4
2017-Mar-25 10:00N 50°36' W 096°54'0 0.0 120 / 61023.9 -3.1-3.1
2017-Mar-25 09:00N 50°36' W 096°54'0 0.0 150 / 41024.4 -4.1-4.1
2017-Mar-25 08:00N 50°36' W 096°54'0 0.0 160 / 31025.2 -3.6-3.7
2017-Mar-25 07:00N 50°36' W 096°54'0 0.0 150 / 31025.3 -3.4-3.5
2017-Mar-25 06:00N 50°36' W 096°54'0 0.0 150 / 31025.7 -3.1-3.1
2017-Mar-25 05:00N 50°36' W 096°54'0 0.0 140 / 21025.8 -2.5-2.5
2017-Mar-25 04:00N 50°36' W 096°54'0 0.0 180 / 41026.1 -2.7-2.8
2017-Mar-25 03:00N 50°36' W 096°54'0 0.0 190 / 31025.9 -1.7-4.3
2017-Mar-25 02:00N 50°36' W 096°54'0 0.0 210 / 41025.5 -1.1-4.8
2017-Mar-25 01:00N 50°36' W 096°54'0 0.0 160 / 31025.2 -1.1-3.8
2017-Mar-24 23:00N 50°36' W 096°54'0 0.0 060 / 31024.9 1.2-4.3
2017-Mar-24 22:00N 50°36' W 096°54'0 0.0 030 / 51025.4 0.2-5.2
2017-Mar-24 21:00N 50°36' W 096°54'0 0.0 060 / 61026.1 -0.1-5.5
2017-Mar-24 20:00N 50°36' W 096°54'0 0.0 050 / 71026.3 -0.4-5.2
2017-Mar-24 19:00N 50°36' W 096°54'0 0.0 040 / 91025.8 -0.8-4.8
2017-Mar-24 18:00N 50°36' W 096°54'0 0.0 040 / 131025.6 -1.1-3.3
2017-Mar-24 17:00N 50°36' W 096°54'0 0.0 030 / 151025.0 -1.3-2.9
2017-Mar-24 16:00N 50°36' W 096°54'0 0.0 010 / 131024.4 -1.2-1.6
2017-Mar-24 15:00N 50°36' W 096°54'0 0.0 350 / 91024.2 -0.8-1.6
2017-Mar-24 14:00N 50°36' W 096°54'0 0.0 350 / 91023.0 -0.9-1.4
2017-Mar-24 13:00N 50°36' W 096°54'0 0.0 330 / 71022.2 -1.1-1.3
2017-Mar-24 12:00N 50°36' W 096°54'0 0.0 330 / 61021.2 -1.2-1.4
2017-Mar-24 11:00N 50°36' W 096°54'0 0.0 320 / 61020.3 -1.2-1.7
2017-Mar-24 10:00N 50°36' W 096°54'0 0.0 330 / 71019.1 -1.3-2.3
2017-Mar-24 09:00N 50°36' W 096°54'0 0.0 340 / 91017.4 -1.4-2.6
2017-Mar-24 08:00N 50°36' W 096°54'0 0.0 330 / 91017.0 -1.8-3.1
2017-Mar-24 07:00N 50°36' W 096°54'0 0.0 320 / 81017.4 -2.2-3.4
2017-Mar-24 06:00N 50°36' W 096°54'0 0.0 330 / 61017.0 -1.8-3.1
2017-Mar-24 05:00N 50°36' W 096°54'0 0.0 340 / 91016.2 -1.4-3.3
2017-Mar-24 04:00N 50°36' W 096°54'0 0.0 360 / 141015.0 -1.0-3.2
2017-Mar-24 03:00N 50°36' W 096°54'0 0.0 360 / 161013.5 -0.6-2.1
2017-Mar-24 02:00N 50°36' W 096°54'0 0.0 360 / 181012.0 0.5-1.3
2017-Mar-24 01:00N 50°36' W 096°54'0 0.0 240 / 51010.4 1.6 1.4
2017-Mar-24 00:00N 50°36' W 096°54'0 0.0 220 / 51009.5 2.8 1.2
2017-Mar-23 23:00N 50°36' W 096°54'0 0.0 210 / 61008.9 3.2 1.1
2017-Mar-23 22:00N 50°36' W 096°54'0 0.0 190 / 81008.4 3.4 0.8
2017-Mar-23 21:00N 50°36' W 096°54'0 0.0 180 / 91008.1 3.2 0.7
2017-Mar-23 20:00N 50°36' W 096°54'0 0.0 180 / 111008.2 3.1 0.3
2017-Mar-23 19:00N 50°36' W 096°54'0 0.0 190 / 121008.5 2.9 0.1
2017-Mar-23 18:00N 50°36' W 096°54'0 0.0 190 / 121008.5 2.6-0.4
2017-Mar-23 17:00N 50°36' W 096°54'0 0.0 200 / 151008.3 1.8-1.0
2017-Mar-23 16:00N 50°36' W 096°54'0 0.0 200 / 181008.5 1.0-1.5
2017-Mar-23 15:00N 50°36' W 096°54'0 0.0 190 / 211007.8 0.4-2.2
2017-Mar-23 14:00N 50°36' W 096°54'0 0.0 190 / 201008.7 -0.0-2.7
2017-Mar-23 13:00N 50°36' W 096°54'0 0.0 180 / 171009.1 -0.3-3.0
2017-Mar-23 12:00N 50°36' W 096°54'0 0.0 180 / 191009.3 -0.2-3.0
2017-Mar-23 11:00N 50°36' W 096°54'0 0.0 180 / 201010.5 0.1-3.0
2017-Mar-23 10:00N 50°36' W 096°54'0 0.0 180 / 181011.7 0.1-3.2
2017-Mar-23 09:00N 50°36' W 096°54'0 0.0 170 / 141013.2 -1.1-3.6
2017-Mar-23 08:00N 50°36' W 096°54'0 0.0 160 / 141013.8 -1.9-3.5
2017-Mar-23 07:00N 50°36' W 096°54'0 0.0 160 / 141015.6 -2.1-3.8
2017-Mar-23 06:00N 50°36' W 096°54'0 0.0 160 / 141016.3 -2.6-4.9
2017-Mar-23 05:00N 50°36' W 096°54'0 0.0 160 / 141017.4 -2.7-4.9
2017-Mar-23 04:00N 50°36' W 096°54'0 0.0 150 / 161018.6 -2.8-5.2
2017-Mar-23 03:00N 50°36' W 096°54'0 0.0 150 / 141019.7 -3.1-5.1
2017-Mar-23 02:00N 50°36' W 096°54'0 0.0 150 / 171020.9 -3.1-6.0
2017-Mar-23 01:00N 50°36' W 096°54'0 0.0 140 / 151021.2 -3.4-5.0
2017-Mar-23 00:00N 50°36' W 096°54'0 0.0 170 / 191021.6 -2.7-7.7
2017-Mar-22 23:00N 50°36' W 096°54'0 0.0 160 / 161022.6 -2.3-8.4
2017-Mar-22 22:00N 50°36' W 096°54'0 0.0 160 / 121023.2 -2.5-8.4
2017-Mar-22 21:00N 50°36' W 096°54'0 0.0 170 / 171024.3 -2.5-10.0
2017-Mar-22 20:00N 50°36' W 096°54'0 0.0 160 / 171025.9 -2.8-9.8
2017-Mar-22 19:00N 50°36' W 096°54'0 0.0 160 / 181027.4 -3.7-11.2
2017-Mar-22 18:00N 50°36' W 096°54'0 0.0 160 / 141028.5 -4.7-11.4
2017-Mar-22 17:00N 50°36' W 096°54'0 0.0 150 / 131029.8 -5.9-12.8
2017-Mar-22 16:00N 50°36' W 096°54'0 0.0 140 / 131031.3 -7.2-13.0
2017-Mar-22 15:00N 50°36' W 096°54'0 0.0 150 / 131031.3 -8.5-13.5
2017-Mar-22 14:00N 50°36' W 096°54'0 0.0 140 / 101031.9 -10.2-13.9
2017-Mar-22 13:00N 50°36' W 096°54'0 0.0 150 / 91033.2 -11.0-14.6
2017-Mar-22 12:00N 50°36' W 096°54'0 0.0 150 / 71034.0 -11.5-15.3
2017-Mar-22 11:00N 50°36' W 096°54'0 0.0 140 / 91034.4 -11.6-15.0
2017-Mar-22 10:00N 50°36' W 096°54'0 0.0 130 / 61035.3 -11.8-13.9
2017-Mar-22 09:00N 50°36' W 096°54'0 0.0 150 / 71036.6 -12.2-15.5
2017-Mar-22 08:00N 50°36' W 096°54'0 0.0 160 / 41037.0 -12.4-14.9
2017-Mar-22 07:00N 50°36' W 096°54'0 0.0 180 / 51037.3 -12.6-15.4
2017-Mar-22 06:00N 50°36' W 096°54'0 0.0 180 / 31037.7 -12.2-15.8
2017-Mar-22 05:00N 50°36' W 096°54'0 0.0 190 / 51038.2 -11.9-16.1
2017-Mar-22 04:00N 50°36' W 096°54'0 0.0 180 / 41038.4 -11.7-15.3
2017-Mar-22 03:00N 50°36' W 096°54'0 0.0 170 / 51038.6 -11.2-16.3
2017-Mar-22 02:00N 50°36' W 096°54'0 0.0 170 / 41038.8 -10.9-16.5
2017-Mar-22 01:00N 50°36' W 096°54'0 0.0 080 / 31038.9 -9.4-16.8
2017-Mar-22 00:00N 50°36' W 096°54'0 0.0 050 / 61039.0 -8.6-17.5
2017-Mar-21 23:00N 50°36' W 096°54'0 0.0 050 / 61039.6 -8.0-17.5
2017-Mar-21 22:00N 50°36' W 096°54'0 0.0 050 / 61039.6 -8.6-17.6
2017-Mar-21 21:00N 50°36' W 096°54'0 0.0 040 / 61040.0 -8.9-18.1
2017-Mar-21 20:00N 50°36' W 096°54'0 0.0 030 / 71040.3 -9.9-18.7
2017-Mar-21 19:00N 50°36' W 096°54'0 0.0 040 / 81040.6 -10.6-18.6
2017-Mar-21 18:00N 50°36' W 096°54'0 0.0 020 / 101040.8 -11.6-19.5
2017-Mar-21 17:00N 50°36' W 096°54'0 0.0 020 / 121040.8 -12.0-20.1
2017-Mar-21 16:00N 50°36' W 096°54'0 0.0 010 / 131040.8 -12.4-21.2
2017-Mar-21 15:00N 50°36' W 096°54'0 0.0 010 / 101040.5 -13.1-20.1
2017-Mar-21 14:00N 50°36' W 096°54'0 0.0 330 / 81039.8 -13.8-19.6
2017-Mar-21 13:00N 50°36' W 096°54'0 0.0 310 / 81038.8 -14.3-19.5
2017-Mar-21 12:00N 50°36' W 096°54'0 0.0 330 / 81037.8 -13.9-19.2
2017-Mar-21 11:00N 50°36' W 096°54'0 0.0 330 / 101037.0 -13.4-19.1
2017-Mar-21 10:00N 50°36' W 096°54'0 0.0 320 / 91036.0 -12.7-18.9
2017-Mar-21 09:00N 50°36' W 096°54'0 0.0 330 / 111035.2 -12.2-18.8
2017-Mar-21 08:00N 50°36' W 096°54'0 0.0 320 / 101034.8 -11.6-17.6
2017-Mar-21 07:00N 50°36' W 096°54'0 0.0 330 / 141033.7 -11.0-17.4
2017-Mar-21 06:00N 50°36' W 096°54'0 0.0 320 / 111033.0 -10.3-17.1
2017-Mar-21 05:00N 50°36' W 096°54'0 0.0 320 / 131031.8 -9.3-17.0
2017-Mar-21 04:00N 50°36' W 096°54'0 0.0 330 / 111031.0 -8.7-15.5
2017-Mar-21 03:00N 50°36' W 096°54'0 0.0 330 / 101030.1 -8.4-15.0
2017-Mar-21 02:00N 50°36' W 096°54'0 0.0 330 / 131028.7 -8.2-15.1
2017-Mar-21 01:00N 50°36' W 096°54'0 0.0 320 / 161026.9 -7.7-14.0
2017-Mar-21 00:00N 50°36' W 096°54'0 0.0 330 / 231024.4 -6.3-11.8
2017-Mar-20 23:00N 50°36' W 096°54'0 0.0 330 / 191021.6 -5.4-8.8
2017-Mar-20 22:00N 50°36' W 096°54'0 0.0 330 / 231017.8 -3.2-5.9
2017-Mar-20 21:00N 50°36' W 096°54'0 0.0 230 / 161017.2 1.4-2.3
2017-Mar-20 20:00N 50°36' W 096°54'0 0.0 260 / 141017.1 5.8-6.1
2017-Mar-20 19:00N 50°36' W 096°54'0 0.0 240 / 101017.4 5.0-5.1
2017-Mar-20 18:00N 50°36' W 096°54'0 0.0 240 / 101018.0 4.8-5.2
2017-Mar-20 17:00N 50°36' W 096°54'0 0.0 240 / 101018.3 4.3-5.5
2017-Mar-20 16:00N 50°36' W 096°54'0 0.0 240 / 81018.7 3.3-5.4
2017-Mar-20 15:00N 50°36' W 096°54'0 0.0 240 / 101018.9 2.1-5.5
2017-Mar-20 14:00N 50°36' W 096°54'0 0.0 240 / 101018.9 0.5-5.6
2017-Mar-20 13:00N 50°36' W 096°54'0 0.0 240 / 81018.7 -0.7-5.8
2017-Mar-20 12:00N 50°36' W 096°54'0 0.0 230 / 81018.4 -0.5-5.8
2017-Mar-20 11:00N 50°36' W 096°54'0 0.0 240 / 71018.0 -0.1-5.5
2017-Mar-20 10:00N 50°36' W 096°54'0 0.0 250 / 71017.7 -0.0-5.1
2017-Mar-20 09:00N 50°36' W 096°54'0 0.0 250 / 61017.6 0.3-4.9
2017-Mar-20 08:00N 50°36' W 096°54'0 0.0 250 / 61017.3 0.7-5.4
2017-Mar-20 07:00N 50°36' W 096°54'0 0.0 250 / 71016.8 1.2-5.2
2017-Mar-20 06:00N 50°36' W 096°54'0 0.0 260 / 81016.1 2.3-4.8
2017-Mar-20 05:00N 50°36' W 096°54'0 0.0 260 / 81015.5 2.8-3.6
2017-Mar-20 04:00N 50°36' W 096°54'0 0.0 270 / 81014.6 3.6-2.5
2017-Mar-20 03:00N 50°36' W 096°54'0 0.0 270 / 61013.6 4.1-1.6
2017-Mar-20 02:00N 50°36' W 096°54'0 0.0 260 / 71012.3 5.4-1.0
2017-Mar-20 01:00N 50°36' W 096°54'0 0.0 260 / 71011.0 6.4-0.4
2017-Mar-20 00:00N 50°36' W 096°54'0 0.0 270 / 91009.5 8.1 0.4
2017-Mar-19 23:00N 50°36' W 096°54'0 0.0 260 / 91008.7 9.0 0.9
2017-Mar-19 22:00N 50°36' W 096°54'0 0.0 260 / 91007.1 10.0 1.6
2017-Mar-19 21:00N 50°36' W 096°54'0 0.0 190 / 81006.2 4.8 2.4
2017-Mar-19 20:00N 50°36' W 096°54'0 0.0 190 / 121005.6 4.6 2.1
2017-Mar-19 19:00N 50°36' W 096°54'0 0.0 190 / 111005.4 3.9 1.9
2017-Mar-19 18:00N 50°36' W 096°54'0 0.0 200 / 151005.5 3.4 1.6
2017-Mar-19 17:00N 50°36' W 096°54'0 0.0 190 / 201004.8 3.2 1.4
2017-Mar-19 16:00N 50°36' W 096°54'0 0.0 180 / 181004.8 2.6 0.8
2017-Mar-19 15:00N 50°36' W 096°54'0 0.0 180 / 211004.8 2.9 0.2
2017-Mar-19 14:00N 50°36' W 096°54'0 0.0 180 / 221005.1 2.6-0.1
2017-Mar-19 13:00N 50°36' W 096°54'0 0.0 170 / 181006.3 2.1-1.0
2017-Mar-19 12:00N 50°36' W 096°54'0 0.0 160 / 191007.6 0.8-1.0
2017-Mar-19 11:00N 50°36' W 096°54'0 0.0 150 / 221006.9 0.4-0.9
2017-Mar-19 10:00N 50°36' W 096°54'0 0.0 150 / 191009.6 0.3-0.0
2017-Mar-19 09:00N 50°36' W 096°54'0 0.0 160 / 201011.7 0.5 0.1
2017-Mar-19 08:00N 50°36' W 096°54'0 0.0 160 / 191012.9 -0.2-0.3
2017-Mar-19 07:00N 50°36' W 096°54'0 0.0 160 / 131014.7 -0.7-0.8
2017-Mar-19 06:00N 50°36' W 096°54'0 0.0 160 / 191015.8 -1.5-1.5
2017-Mar-19 05:00N 50°36' W 096°54'0 0.0 150 / 151018.0 -1.9-2.0
2017-Mar-19 04:00N 50°36' W 096°54'0 0.0 160 / 131018.6 -2.7-2.7
2017-Mar-19 03:00N 50°36' W 096°54'0 0.0 150 / 101019.5 -3.1-3.1
2017-Mar-19 02:00N 50°36' W 096°54'0 0.0 150 / 101020.5 -2.6-2.7
2017-Mar-19 01:00N 50°36' W 096°54'0 0.0 140 / 121021.6 -2.6-2.8
2017-Mar-19 00:00N 50°36' W 096°54'0 0.0 140 / 81022.9 -3.2-3.8
2017-Mar-18 23:00N 50°36' W 096°54'0 0.0 150 / 101024.2 -3.5-6.3
2017-Mar-18 22:00N 50°36' W 096°54'0 0.0 160 / 91025.5 -3.7-6.3
2017-Mar-18 21:00N 50°36' W 096°54'0 0.0 150 / 101026.6 -4.7-8.7
2017-Mar-18 20:00N 50°36' W 096°54'0 0.0 170 / 81027.3 -6.0-9.2
2017-Mar-18 19:00N 50°36' W 096°54'0 0.0 140 / 81028.4 -6.8-10.2
2017-Mar-18 18:00N 50°36' W 096°54'0 0.0 130 / 71029.6 -7.7-11.0
2017-Mar-18 17:00N 50°36' W 096°54'0 0.0 150 / 61030.3 -9.0-11.9
2017-Mar-18 16:00N 50°36' W 096°54'0 0.0 130 / 61030.8 -8.6-11.3
2017-Mar-18 15:00N 50°36' W 096°54'0 0.0 090 / 71030.8 -8.7-9.8
2017-Mar-18 14:00N 50°36' W 096°54'0 0.0 010 / 41031.5 -11.7-11.8
2017-Mar-18 13:00N 50°36' W 096°54'0 0.0 330 / 41031.9 -13.0-13.2
2017-Mar-18 12:00N 50°36' W 096°54'0 0.0 300 / 41031.4 -13.3-13.4
2017-Mar-18 11:00N 50°36' W 096°54'0 0.0 320 / 41030.6 -12.9-13.0
2017-Mar-18 10:00N 50°36' W 096°54'0 0.0 300 / 41030.5 -12.5-12.7
2017-Mar-18 09:00N 50°36' W 096°54'0 0.0 320 / 51030.1 -11.8-12.0
2017-Mar-18 08:00N 50°36' W 096°54'0 0.0 330 / 71029.9 -11.2-11.3
2017-Mar-18 07:00N 50°36' W 096°54'0 0.0 340 / 91029.5 -10.7-10.8
2017-Mar-18 06:00N 50°36' W 096°54'0 0.0 320 / 111028.9 -10.4-10.6
2017-Mar-18 05:00N 50°36' W 096°54'0 0.0 310 / 91027.8 -9.9-10.1
2017-Mar-18 04:00N 50°36' W 096°54'0 0.0 320 / 111027.3 -9.6-9.7
2017-Mar-18 03:00N 50°36' W 096°54'0 0.0 340 / 141026.4 -8.1-8.3
2017-Mar-18 02:00N 50°36' W 096°54'0 0.0 320 / 141026.0 -8.4-8.5
2017-Mar-18 01:00N 50°36' W 096°54'0 0.0 320 / 151024.9 -8.6-8.7
2017-Mar-18 00:00N 50°36' W 096°54'0 0.0 320 / 161023.5 -8.3-8.6
2017-Mar-17 23:00N 50°36' W 096°54'0 0.0 320 / 171022.0 -7.9-8.4
2017-Mar-17 22:00N 50°36' W 096°54'0 0.0 320 / 181020.2 -7.1-7.2
2017-Mar-17 21:00N 50°36' W 096°54'0 0.0 320 / 181018.2 -6.2-6.3
2017-Mar-17 20:00N 50°36' W 096°54'0 0.0 320 / 181017.0 -6.2-6.3
2017-Mar-17 19:00N 50°36' W 096°54'0 0.0 310 / 171015.8 -5.8-5.9
2017-Mar-17 18:00N 50°36' W 096°54'0 0.0 320 / 171014.1 -4.3-4.4
2017-Mar-17 17:00N 50°36' W 096°54'0 0.0 310 / 191012.3 -3.7-3.8
2017-Mar-17 16:00N 50°36' W 096°54'0 0.0 310 / 201011.0 -2.1-2.1
2017-Mar-17 15:00N 50°36' W 096°54'0 0.0 310 / 151009.9 -0.3-0.0
2017-Mar-17 14:00N 50°36' W 096°54'0 0.0 300 / 131009.0 -0.1 0.2
2017-Mar-17 13:00N 50°36' W 096°54'0 0.0 310 / 101008.3 0.1 0.4
2017-Mar-17 12:00N 50°36' W 096°54'0 0.0 310 / 111007.2 0.3 0.6
2017-Mar-17 11:00N 50°36' W 096°54'0 0.0 320 / 101006.4 0.5 0.9
2017-Mar-17 10:00N 50°36' W 096°54'0 0.0 290 / 61006.0 0.7 1.2
2017-Mar-17 09:00N 50°36' W 096°54'0 0.0 270 / 11005.9 0.4 0.9
2017-Mar-17 08:00N 50°36' W 096°54'0 0.0 210 / 31005.7 0.4 0.8
2017-Mar-17 07:00N 50°36' W 096°54'0 0.0 190 / 81005.8 0.6 1.0
2017-Mar-17 06:00N 50°36' W 096°54'0 0.0 180 / 101005.8 0.9 1.2
2017-Mar-17 05:00N 50°36' W 096°54'0 0.0 180 / 121006.1 1.0 1.3
2017-Mar-17 04:00N 50°36' W 096°54'0 0.0 170 / 151006.6 0.8 1.2
2017-Mar-17 03:00N 50°36' W 096°54'0 0.0 170 / 141007.4 0.8 1.2
2017-Mar-17 02:00N 50°36' W 096°54'0 0.0 160 / 121008.2 0.3 0.8
2017-Mar-17 01:00N 50°36' W 096°54'0 0.0 150 / 111008.7 -0.0 0.4
2017-Mar-17 00:00N 50°36' W 096°54'0 0.0 150 / 131009.0 0.1 0.4
2017-Mar-16 23:00N 50°36' W 096°54'0 0.0 160 / 121009.2 0.1 0.4
2017-Mar-16 22:00N 50°36' W 096°54'0 0.0 160 / 141009.3 0.2 0.4
2017-Mar-16 21:00N 50°36' W 096°54'0 0.0 160 / 111010.0 0.8 0.8
2017-Mar-16 20:00N 50°36' W 096°54'0 0.0 140 / 111010.6 0.7 0.1
2017-Mar-16 19:00N 50°36' W 096°54'0 0.0 140 / 101011.6 0.4-0.0
2017-Mar-16 18:00N 50°36' W 096°54'0 0.0 140 / 151012.3 -0.4-0.7
2017-Mar-16 17:00N 50°36' W 096°54'0 0.0 150 / 131013.0 -1.4-1.6
2017-Mar-16 16:00N 50°36' W 096°54'0 0.0 140 / 151013.7 -2.6-2.8
2017-Mar-16 15:00N 50°36' W 096°54'0 0.0 130 / 141014.1 -3.6-3.7
2017-Mar-16 14:00N 50°36' W 096°54'0 0.0 130 / 141014.2 -4.4-4.5
2017-Mar-16 13:00N 50°36' W 096°54'0 0.0 140 / 121015.0 -5.3-5.4
2017-Mar-16 12:00N 50°36' W 096°54'0 0.0 150 / 111014.9 -5.1-5.1
2017-Mar-16 11:00N 50°36' W 096°54'0 0.0 160 / 91015.5 -5.3-5.2
2017-Mar-16 10:00N 50°36' W 096°54'0 0.0 160 / 101016.0 -4.7-4.7
2017-Mar-16 09:00N 50°36' W 096°54'0 0.0 160 / 111016.9 -4.0-4.1
2017-Mar-16 08:00N 50°36' W 096°54'0 0.0 170 / 111017.4 -2.9-3.0
2017-Mar-16 07:00N 50°36' W 096°54'0 0.0 160 / 91018.1 -4.5-4.6
2017-Mar-16 06:00N 50°36' W 096°54'0 0.0 170 / 91018.4 -4.8-4.9
2017-Mar-16 05:00N 50°36' W 096°54'0 0.0 150 / 91019.0 -4.4-4.5
2017-Mar-16 04:00N 50°36' W 096°54'0 0.0 150 / 91019.5 -4.3-4.4
2017-Mar-16 03:00N 50°36' W 096°54'0 0.0 160 / 91020.0 -3.7-3.9
2017-Mar-16 02:00N 50°36' W 096°54'0 0.0 180 / 71020.4 -3.0-4.0
2017-Mar-16 01:00N 50°36' W 096°54'   170 / 91020.4 -1.9-5.0

Dump ship's entire track history